createdAt,value
2018-09-17T00:02:22.443Z,9.70
2018-09-17T00:04:51.394Z,10.07
2018-09-17T00:07:20.361Z,8.53
2018-09-17T00:09:49.360Z,11.83
2018-09-17T00:12:18.427Z,10.37
2018-09-17T00:14:47.374Z,9.10
2018-09-17T00:17:16.381Z,10.00
2018-09-17T00:19:45.321Z,11.43
2018-09-17T00:22:14.305Z,11.43
2018-09-17T00:24:43.277Z,12.07
2018-09-17T00:27:12.262Z,9.33
2018-09-17T00:29:41.222Z,12.30
2018-09-17T00:32:10.168Z,11.00
2018-09-17T00:34:39.120Z,9.97
2018-09-17T00:37:08.067Z,14.27
2018-09-17T00:39:37.026Z,11.83
2018-09-17T00:42:06.066Z,11.90
2018-09-17T00:44:35.268Z,10.37
2018-09-17T00:47:04.222Z,12.30
2018-09-17T00:49:33.152Z,16.97
2018-09-17T00:52:02.130Z,11.90
2018-09-17T00:54:31.125Z,11.33
2018-09-17T00:57:00.229Z,12.30
2018-09-17T00:59:29.276Z,11.77
2018-09-17T01:01:58.310Z,12.00
2018-09-17T01:04:27.274Z,11.47
2018-09-17T01:06:56.232Z,11.03
2018-09-17T01:09:30.351Z,12.63
2018-09-17T01:11:59.318Z,13.20
2018-09-17T01:14:28.180Z,14.07
2018-09-17T01:16:57.091Z,15.63
2018-09-17T01:19:25.976Z,11.63
2018-09-17T01:21:54.809Z,14.30
2018-09-17T01:24:23.627Z,11.13
2018-09-17T01:26:52.466Z,14.57
2018-09-17T01:29:21.315Z,13.43
2018-09-17T01:31:50.190Z,13.40
2018-09-17T01:34:19.006Z,13.40
2018-09-17T01:36:47.972Z,15.67
2018-09-17T01:39:16.803Z,13.63
2018-09-17T01:41:45.653Z,12.33
2018-09-17T01:44:14.691Z,17.00
2018-09-17T01:46:43.528Z,14.07
2018-09-17T01:49:12.384Z,13.47
2018-09-17T01:51:41.430Z,14.90
2018-09-17T01:54:10.280Z,15.03
2018-09-17T01:56:39.144Z,13.83
2018-09-17T01:59:08.004Z,17.57
2018-09-17T02:01:36.890Z,12.50
2018-09-17T02:04:05.782Z,14.07
2018-09-17T02:06:34.630Z,17.87
2018-09-17T02:09:05.100Z,13.40
2018-09-17T02:11:33.939Z,14.67
2018-09-17T02:14:02.863Z,11.87
2018-09-17T02:16:31.689Z,14.53
2018-09-17T02:19:00.654Z,13.07
2018-09-17T02:21:29.624Z,15.00
2018-09-17T02:23:58.451Z,18.17
2018-09-17T02:26:27.398Z,16.70
2018-09-17T02:28:56.345Z,15.40
2018-09-17T02:31:25.250Z,12.97
2018-09-17T02:33:54.043Z,14.83
2018-09-17T02:36:22.882Z,13.20
2018-09-17T02:38:51.725Z,16.63
2018-09-17T02:41:20.577Z,12.80
2018-09-17T02:43:49.540Z,16.73
2018-09-17T02:46:18.417Z,15.37
2018-09-17T02:48:47.688Z,11.70
2018-09-17T02:51:16.516Z,14.03
2018-09-17T02:53:45.411Z,14.30
2018-09-17T02:56:14.232Z,12.90
2018-09-17T02:58:43.127Z,12.60
2018-09-17T03:01:11.952Z,13.73
2018-09-17T03:03:41.197Z,12.83
2018-09-17T03:06:10.038Z,14.53
2018-09-17T03:08:38.870Z,15.43
2018-09-17T03:11:07.750Z,13.90
2018-09-17T03:13:36.586Z,13.37
2018-09-17T03:16:05.411Z,32.80
2018-09-17T03:18:46.178Z,17.47
2018-09-17T03:21:15.006Z,17.30
2018-09-17T03:23:43.898Z,18.40
2018-09-17T03:26:12.782Z,12.63
2018-09-17T03:28:41.588Z,15.63
2018-09-17T03:31:10.482Z,13.83
2018-09-17T03:33:39.315Z,13.13
2018-09-17T03:36:08.183Z,13.33
2018-09-17T03:38:43.137Z,12.27
2018-09-17T03:41:12.671Z,16.03
2018-09-17T03:43:45.963Z,19.00
2018-09-17T03:46:14.795Z,17.10
2018-09-17T03:48:43.663Z,13.23
2018-09-17T03:51:12.843Z,15.40
2018-09-17T03:53:42.061Z,15.70
2018-09-17T03:56:10.933Z,13.70
2018-09-17T03:58:39.772Z,14.83
2018-09-17T04:01:08.664Z,14.40
2018-09-17T04:03:37.518Z,16.87
2018-09-17T04:06:06.407Z,15.50
2018-09-17T04:08:35.239Z,13.23
2018-09-17T04:11:04.138Z,15.37
2018-09-17T04:13:33.126Z,18.40
2018-09-17T04:16:02.022Z,16.00
2018-09-17T04:18:30.911Z,12.17
2018-09-17T04:20:59.738Z,14.73
2018-09-17T04:23:33.643Z,14.77
2018-09-17T04:26:03.256Z,12.07
2018-09-17T04:28:32.213Z,15.17
2018-09-17T04:31:01.513Z,14.23
2018-09-17T04:33:33.271Z,15.53
2018-09-17T04:36:02.606Z,16.23
2018-09-17T04:38:31.777Z,16.27
2018-09-17T04:41:01.013Z,13.90
2018-09-17T04:43:30.174Z,16.10
2018-09-17T04:45:59.467Z,13.23
2018-09-17T04:48:28.690Z,14.03
2018-09-17T04:50:57.709Z,14.87
2018-09-17T04:53:26.659Z,14.77
2018-09-17T04:55:55.811Z,13.13
2018-09-17T04:58:24.690Z,17.50
2018-09-17T05:00:53.609Z,16.50
2018-09-17T05:03:22.834Z,14.87
2018-09-17T05:05:51.973Z,14.23
2018-09-17T05:08:21.052Z,13.43
2018-09-17T05:10:49.965Z,13.93
2018-09-17T05:13:19.064Z,15.30
2018-09-17T05:15:47.981Z,16.77
2018-09-17T05:18:16.800Z,18.43
2018-09-17T05:20:45.748Z,15.70
2018-09-17T05:23:15.047Z,13.53
2018-09-17T05:25:44.280Z,15.87
2018-09-17T05:28:13.531Z,14.97
2018-09-17T05:30:42.792Z,12.37
2018-09-17T05:33:12.021Z,13.83
2018-09-17T05:35:41.335Z,13.00
2018-09-17T05:38:10.581Z,14.70
2018-09-17T05:40:39.837Z,15.57
2018-09-17T05:43:08.999Z,14.70
2018-09-17T05:45:38.177Z,15.80
2018-09-17T05:48:07.258Z,16.63
2018-09-17T05:50:36.463Z,14.00
2018-09-17T05:53:05.797Z,17.10
2018-09-17T05:55:35.066Z,18.87
2018-09-17T05:58:04.293Z,18.00
2018-09-17T06:00:33.624Z,18.03
2018-09-17T06:03:02.752Z,19.20
2018-09-17T06:05:31.910Z,19.53
2018-09-17T06:08:01.155Z,18.47
2018-09-17T06:10:30.371Z,19.37
2018-09-17T06:12:59.540Z,22.97
2018-09-17T06:15:28.677Z,15.57
2018-09-17T06:17:57.846Z,16.37
2018-09-17T06:20:26.943Z,22.83
2018-09-17T06:22:56.134Z,16.03
2018-09-17T06:25:25.331Z,17.30
2018-09-17T06:27:54.541Z,22.33
2018-09-17T06:30:23.657Z,16.97
2018-09-17T06:32:52.812Z,13.70
2018-09-17T06:35:21.917Z,13.77
2018-09-17T06:37:51.231Z,14.73
2018-09-17T06:40:20.728Z,15.80
2018-09-17T06:42:49.934Z,14.83
2018-09-17T06:45:19.110Z,11.87
2018-09-17T06:47:48.324Z,11.40
2018-09-17T06:50:17.446Z,12.27
2018-09-17T06:52:46.715Z,13.07
2018-09-17T06:55:15.847Z,11.73
2018-09-17T06:57:45.434Z,10.67
2018-09-17T07:00:14.709Z,12.30
2018-09-17T07:02:43.935Z,11.57
2018-09-17T07:05:13.210Z,13.07
2018-09-17T07:07:42.402Z,9.50
2018-09-17T07:10:11.513Z,13.57
2018-09-17T07:12:40.626Z,11.17
2018-09-17T07:15:09.936Z,12.27
2018-09-17T07:17:39.242Z,9.73
2018-09-17T07:20:08.540Z,13.40
2018-09-17T07:22:37.794Z,8.80
2018-09-17T07:25:07.202Z,16.33
2018-09-17T07:27:36.392Z,10.83
2018-09-17T07:30:05.703Z,8.40
2018-09-17T07:32:34.968Z,9.30
2018-09-17T07:35:04.129Z,9.07
2018-09-17T07:37:33.472Z,9.60
2018-09-17T07:40:02.688Z,8.93
2018-09-17T07:42:31.934Z,8.73
2018-09-17T07:45:01.212Z,10.50
2018-09-17T07:47:30.397Z,11.00
2018-09-17T07:49:59.578Z,8.97
2018-09-17T07:52:28.693Z,7.87
2018-09-17T07:54:57.992Z,9.40
2018-09-17T07:57:27.337Z,7.77
2018-09-17T07:59:56.489Z,7.43
2018-09-17T08:02:25.783Z,8.47
2018-09-17T08:04:55.085Z,7.47
2018-09-17T08:07:24.258Z,9.23
2018-09-17T08:09:53.392Z,6.90
2018-09-17T08:12:22.569Z,8.90
2018-09-17T08:14:51.758Z,7.70
2018-09-17T08:17:21.050Z,7.17
2018-09-17T08:19:50.281Z,6.00
2018-09-17T08:22:19.445Z,6.67
2018-09-17T08:24:48.732Z,9.67
2018-09-17T08:27:19.045Z,9.40
2018-09-17T08:29:48.219Z,6.30
2018-09-17T08:32:17.361Z,8.43
2018-09-17T08:34:46.460Z,5.33
2018-09-17T08:37:15.585Z,6.60
2018-09-17T08:39:44.878Z,5.43
2018-09-17T08:42:14.239Z,6.43
2018-09-17T08:44:43.543Z,6.40
2018-09-17T08:47:12.746Z,8.10
2018-09-17T08:49:41.965Z,7.20
2018-09-17T08:52:11.058Z,7.13
2018-09-17T08:54:45.366Z,6.27
2018-09-17T08:57:19.514Z,5.37
2018-09-17T08:59:53.857Z,10.20
2018-09-17T09:02:28.114Z,6.33
2018-09-17T09:05:01.346Z,7.37
2018-09-17T09:07:31.308Z,8.23
2018-09-17T09:10:05.442Z,7.97
2018-09-17T09:12:39.509Z,7.30
2018-09-17T09:15:13.626Z,6.80
2018-09-17T09:17:42.769Z,5.77
2018-09-17T09:20:12.003Z,6.50
2018-09-17T09:22:41.308Z,6.13
2018-09-17T09:25:10.697Z,6.77
2018-09-17T09:27:39.987Z,5.63
2018-09-17T09:30:09.253Z,8.50
2018-09-17T09:32:38.448Z,6.23
2018-09-17T09:35:07.562Z,4.70
2018-09-17T09:37:36.633Z,9.40
2018-09-17T09:40:05.903Z,4.77
2018-09-17T09:42:35.201Z,5.67
2018-09-17T09:45:04.430Z,5.47
2018-09-17T09:47:33.652Z,6.20
2018-09-17T09:50:02.886Z,7.23
2018-09-17T09:52:31.937Z,6.87
2018-09-17T09:55:01.100Z,7.00
2018-09-17T09:57:30.485Z,5.63
2018-09-17T09:59:59.775Z,5.07
2018-09-17T10:02:35.967Z,7.23
2018-09-17T10:05:05.788Z,4.40
2018-09-17T10:07:34.997Z,5.33
2018-09-17T10:11:10.978Z,7.20
2018-09-17T10:13:45.105Z,9.43
2018-09-17T10:16:17.129Z,4.37
2018-09-17T10:18:51.488Z,4.47
2018-09-17T10:21:20.722Z,5.43
2018-09-17T10:23:52.239Z,4.87
2018-09-17T10:26:21.425Z,3.43
2018-09-17T10:28:50.711Z,5.97
2018-09-17T10:31:19.850Z,5.00
2018-09-17T10:33:49.200Z,4.57
2018-09-17T10:36:18.348Z,3.30
2018-09-17T10:38:47.655Z,3.80
2018-09-17T10:41:16.803Z,3.73
2018-09-17T10:43:46.038Z,3.00
2018-09-17T10:46:15.354Z,3.10
2018-09-17T10:48:44.609Z,3.40
2018-09-17T10:51:13.793Z,3.13
2018-09-17T10:53:43.107Z,2.30
2018-09-17T10:56:12.448Z,2.47
2018-09-17T10:58:41.371Z,2.83
2018-09-17T11:01:10.197Z,2.07
2018-09-17T11:03:39.074Z,2.20
2018-09-17T11:06:07.878Z,2.40
2018-09-17T11:08:36.695Z,1.97
2018-09-17T11:11:05.516Z,1.93
2018-09-17T11:13:34.400Z,3.03
2018-09-17T11:16:03.217Z,3.17
2018-09-17T11:18:32.051Z,2.17
2018-09-17T11:21:00.839Z,3.60
2018-09-17T11:23:29.650Z,1.70
2018-09-17T11:25:58.461Z,1.93
2018-09-17T11:28:27.382Z,1.83
2018-09-17T11:30:56.266Z,6.47
2018-09-17T11:33:25.091Z,2.83
2018-09-17T11:35:53.897Z,1.33
2018-09-17T11:38:22.829Z,1.87
2018-09-17T11:40:51.661Z,2.00
2018-09-17T11:43:20.478Z,1.93
2018-09-17T11:45:49.270Z,1.47
2018-09-17T11:48:18.124Z,2.13
2018-09-17T11:50:46.935Z,2.23
2018-09-17T11:53:15.741Z,2.47
2018-09-17T11:55:44.621Z,1.63
2018-09-17T11:58:13.466Z,1.63
2018-09-17T12:00:47.449Z,1.83
2018-09-17T12:03:21.403Z,2.87
2018-09-17T12:05:55.338Z,1.77
2018-09-17T12:08:24.145Z,2.53
2018-09-17T12:10:52.964Z,2.03
2018-09-17T12:13:21.790Z,2.23
2018-09-17T12:15:50.612Z,1.50
2018-09-17T12:18:19.427Z,1.53
2018-09-17T12:20:48.321Z,1.83
2018-09-17T12:23:17.252Z,2.40
2018-09-17T12:25:46.074Z,2.30
2018-09-17T12:28:14.894Z,3.90
2018-09-17T12:30:43.703Z,1.60
2018-09-17T12:33:12.566Z,1.77
2018-09-17T12:35:41.374Z,2.13
2018-09-17T12:38:10.241Z,1.53
2018-09-17T12:40:39.041Z,3.27
2018-09-17T12:43:07.858Z,2.33
2018-09-17T12:45:36.704Z,1.77
2018-09-17T12:48:05.571Z,2.27
2018-09-17T12:50:34.515Z,1.63
2018-09-17T12:53:03.333Z,1.23
2018-09-17T12:55:32.133Z,2.23
2018-09-17T12:58:00.947Z,1.90
2018-09-17T13:00:29.774Z,2.40
2018-09-17T13:02:58.622Z,1.63
2018-09-17T13:05:27.474Z,1.93
2018-09-17T13:07:56.279Z,1.60
2018-09-17T13:10:25.085Z,1.40
2018-09-17T13:12:53.936Z,1.70
2018-09-17T13:15:22.789Z,2.60
2018-09-17T13:17:51.772Z,1.90
2018-09-17T13:20:20.688Z,2.43
2018-09-17T13:22:49.494Z,1.50
2018-09-17T13:25:18.676Z,2.90
2018-09-17T13:27:47.603Z,2.13
2018-09-17T13:30:16.418Z,2.43
2018-09-17T13:32:45.294Z,1.60
2018-09-17T13:35:14.156Z,1.33
2018-09-17T13:37:42.970Z,1.97
2018-09-17T13:40:11.823Z,1.67
2018-09-17T13:42:40.819Z,1.47
2018-09-17T13:45:09.612Z,1.60
2018-09-17T13:47:38.475Z,1.60
2018-09-17T13:50:07.815Z,1.93
2018-09-17T13:52:36.623Z,2.47
2018-09-17T13:55:05.635Z,2.37
2018-09-17T13:57:34.458Z,2.10
2018-09-17T14:00:03.335Z,2.37
2018-09-17T14:02:32.227Z,1.47
2018-09-17T14:05:01.062Z,3.60
2018-09-17T14:07:29.902Z,1.40
2018-09-17T14:09:59.003Z,3.30
2018-09-17T14:12:27.857Z,2.27
2018-09-17T14:14:56.697Z,1.87
2018-09-17T14:17:25.549Z,1.70
2018-09-17T14:19:54.354Z,4.43
2018-09-17T14:22:23.245Z,6.50
2018-09-17T14:24:52.041Z,1.93
2018-09-17T14:27:21.006Z,2.57
2018-09-17T14:29:49.823Z,1.70
2018-09-17T14:32:23.759Z,3.80
2018-09-17T14:34:52.614Z,2.67
2018-09-17T14:37:21.548Z,1.93
2018-09-17T14:39:50.368Z,2.37
2018-09-17T14:42:19.216Z,1.77
2018-09-17T14:44:48.013Z,1.97
2018-09-17T14:47:17.026Z,1.80
2018-09-17T14:49:45.838Z,2.40
2018-09-17T14:52:14.845Z,2.80
2018-09-17T14:54:43.692Z,2.80
2018-09-17T14:57:12.554Z,2.33
2018-09-17T14:59:41.466Z,2.80
2018-09-17T15:02:10.338Z,1.80
2018-09-17T15:04:39.259Z,1.70
2018-09-17T15:07:08.067Z,2.50
2018-09-17T15:09:36.924Z,2.57
2018-09-17T15:12:05.729Z,5.40
2018-09-17T15:14:34.717Z,1.93
2018-09-17T15:17:03.569Z,3.53
2018-09-17T15:19:32.415Z,2.57
2018-09-17T15:22:01.351Z,2.00
2018-09-17T15:24:30.194Z,2.03
2018-09-17T15:26:59.039Z,3.13
2018-09-17T15:29:27.989Z,4.70
2018-09-17T15:31:57.029Z,3.53
2018-09-17T15:34:25.955Z,3.50
2018-09-17T15:36:54.653Z,2.03
2018-09-17T15:39:23.556Z,2.33
2018-09-17T15:41:52.978Z,4.03
2018-09-17T15:44:21.958Z,2.03
2018-09-17T15:46:50.915Z,3.00
2018-09-17T15:49:19.778Z,2.10
2018-09-17T15:51:48.667Z,2.10
2018-09-17T15:54:17.466Z,2.10
2018-09-17T15:56:46.541Z,2.70
2018-09-17T15:59:15.396Z,2.30
2018-09-17T16:01:44.329Z,2.10
2018-09-17T16:04:13.380Z,2.13
2018-09-17T16:06:43.362Z,3.80
2018-09-17T16:09:12.220Z,2.20
2018-09-17T16:11:41.127Z,2.30
2018-09-17T16:14:10.319Z,3.00
2018-09-17T16:16:39.209Z,1.83
2018-09-17T16:19:08.127Z,2.30
2018-09-17T16:21:36.963Z,2.23
2018-09-17T16:24:05.866Z,2.53
2018-09-17T16:26:34.839Z,2.00
2018-09-17T16:29:04.378Z,6.70
2018-09-17T16:31:33.601Z,13.30
2018-09-17T16:34:03.249Z,3.83
2018-09-17T16:36:32.178Z,2.10
2018-09-17T16:39:01.182Z,2.93
2018-09-17T16:41:30.290Z,2.20
2018-09-17T16:43:59.618Z,3.37
2018-09-17T16:46:28.585Z,2.20
2018-09-17T16:48:57.719Z,1.83
2018-09-17T16:51:26.546Z,2.03
2018-09-17T16:53:56.855Z,2.33
2018-09-17T16:56:25.709Z,3.70
2018-09-17T16:58:54.717Z,3.37
2018-09-17T17:01:23.542Z,2.17
2018-09-17T17:03:52.500Z,1.90
2018-09-17T17:06:21.390Z,2.87
2018-09-17T17:08:50.363Z,3.53
2018-09-17T17:11:19.258Z,5.40
2018-09-17T17:13:48.325Z,2.23
2018-09-17T17:16:17.468Z,3.70
2018-09-17T17:18:46.287Z,1.73
2018-09-17T17:21:15.229Z,2.73
2018-09-17T17:23:44.550Z,3.90
2018-09-17T17:26:13.812Z,4.10
2018-09-17T17:28:42.939Z,7.97
2018-09-17T17:31:11.871Z,2.47
2018-09-17T17:33:40.783Z,3.10
2018-09-17T17:36:09.870Z,3.47
2018-09-17T17:38:39.022Z,3.40
2018-09-17T17:41:08.681Z,2.33
2018-09-17T17:43:38.242Z,3.00
2018-09-17T17:46:08.578Z,2.63
2018-09-17T17:48:38.301Z,4.13
2018-09-17T17:51:08.684Z,3.67
2018-09-17T17:53:37.602Z,5.33
2018-09-17T17:56:06.515Z,5.77
2018-09-17T17:58:35.594Z,3.03
2018-09-17T18:01:04.487Z,3.33
2018-09-17T18:03:34.258Z,6.93
2018-09-17T18:06:03.569Z,2.20
2018-09-17T18:08:32.773Z,2.97
2018-09-17T18:11:01.790Z,3.00
2018-09-17T18:13:30.914Z,2.57
2018-09-17T18:16:00.070Z,6.47
2018-09-17T18:18:29.303Z,5.30
2018-09-17T18:20:58.550Z,4.57
2018-09-17T18:23:27.720Z,3.77
2018-09-17T18:25:57.609Z,3.00
2018-09-17T18:28:27.435Z,4.53
2018-09-17T18:30:56.598Z,2.83
2018-09-17T18:33:26.571Z,2.80
2018-09-17T18:35:56.089Z,3.70
2018-09-17T18:38:25.371Z,2.83
2018-09-17T18:40:54.416Z,3.27
2018-09-17T18:43:24.495Z,3.07
2018-09-17T18:45:53.981Z,6.13
2018-09-17T18:48:23.493Z,5.47
2018-09-17T18:50:52.758Z,4.20
2018-09-17T18:53:22.059Z,3.43
2018-09-17T18:55:51.448Z,4.70
2018-09-17T18:58:20.587Z,3.60
2018-09-17T19:00:56.167Z,3.67
2018-09-17T19:03:25.716Z,2.20
2018-09-17T19:05:55.070Z,4.20
2018-09-17T19:08:24.358Z,3.77
2018-09-17T19:10:53.602Z,3.53
2018-09-17T19:13:22.698Z,4.37
2018-09-17T19:15:57.227Z,3.00
2018-09-17T19:18:26.284Z,4.70
2018-09-17T19:20:55.641Z,2.53
2018-09-17T19:23:29.505Z,3.63
2018-09-17T19:26:00.050Z,3.00
2018-09-17T19:28:34.530Z,4.87
2018-09-17T19:31:03.787Z,2.73
2018-09-17T19:33:33.037Z,2.37
2018-09-17T19:36:02.333Z,3.23
2018-09-17T19:38:37.163Z,2.53
2018-09-17T19:41:06.412Z,2.63
2018-09-17T19:43:35.585Z,3.47
2018-09-17T19:46:09.930Z,2.67
2018-09-17T19:48:39.211Z,2.53
2018-09-17T19:51:13.486Z,3.53
2018-09-17T19:53:42.840Z,2.43
2018-09-17T19:56:12.022Z,3.60
2018-09-17T19:58:46.296Z,2.97
2018-09-17T20:01:15.666Z,2.40
2018-09-17T20:03:44.689Z,2.83
2018-09-17T20:06:19.114Z,2.23
2018-09-17T20:08:48.583Z,2.73
2018-09-17T20:11:17.719Z,3.83
2018-09-17T20:13:46.818Z,4.73
2018-09-17T20:16:16.436Z,3.20
2018-09-17T20:18:45.671Z,4.60
2018-09-17T20:21:14.825Z,3.20
2018-09-17T20:23:44.215Z,3.60
2018-09-17T20:26:13.382Z,2.80
2018-09-17T20:28:42.902Z,2.60
2018-09-17T20:31:12.489Z,3.83
2018-09-17T20:33:42.101Z,2.87
2018-09-17T20:36:11.666Z,2.80
2018-09-17T20:38:41.276Z,3.07
2018-09-17T20:41:10.727Z,3.90
2018-09-17T20:43:40.155Z,3.77
2018-09-17T20:46:09.673Z,3.30
2018-09-17T20:48:39.288Z,2.60
2018-09-17T20:51:08.557Z,3.40
2018-09-17T20:53:37.912Z,3.33
2018-09-17T20:56:07.244Z,4.53
2018-09-17T20:58:37.002Z,2.97
2018-09-17T21:01:36.378Z,3.90
2018-09-17T21:04:06.014Z,5.97
2018-09-17T21:06:35.023Z,3.00
2018-09-17T21:09:05.617Z,6.00
2018-09-17T21:11:35.090Z,3.93
2018-09-17T21:14:04.561Z,3.43
2018-09-17T21:16:33.939Z,4.50
2018-09-17T21:19:03.219Z,2.87
2018-09-17T21:21:32.032Z,2.90
2018-09-17T21:24:00.867Z,2.10
2018-09-17T21:26:29.958Z,2.53
2018-09-17T21:28:58.786Z,3.40
2018-09-17T21:31:27.678Z,2.67
2018-09-17T21:33:56.731Z,2.50
2018-09-17T21:36:25.506Z,2.87
2018-09-17T21:38:54.477Z,2.90
2018-09-17T21:41:23.723Z,2.87
2018-09-17T21:43:52.974Z,4.03
2018-09-17T21:46:22.262Z,5.47
2018-09-17T21:48:51.530Z,4.10
2018-09-17T21:51:20.715Z,3.03
2018-09-17T21:53:49.937Z,2.63
2018-09-17T21:56:19.257Z,2.10
2018-09-17T21:58:48.683Z,3.27
2018-09-17T22:01:19.418Z,3.77
2018-09-17T22:03:49.254Z,2.90
2018-09-17T22:06:18.090Z,3.37
2018-09-17T22:08:47.103Z,2.13
2018-09-17T22:11:16.009Z,2.40
2018-09-17T22:13:44.833Z,3.53
2018-09-17T22:16:13.786Z,7.43
2018-09-17T22:18:42.947Z,3.60
2018-09-17T22:21:11.806Z,3.80
2018-09-17T22:23:40.609Z,3.83
2018-09-17T22:26:09.546Z,3.37
2018-09-17T22:28:38.449Z,4.10
2018-09-17T22:31:07.609Z,4.17
2018-09-17T22:33:36.497Z,2.87
2018-09-17T22:36:05.374Z,3.07
2018-09-17T22:38:34.223Z,4.43
2018-09-17T22:41:03.061Z,3.03
2018-09-17T22:43:31.886Z,4.53
2018-09-17T22:46:00.723Z,2.70
2018-09-17T22:48:29.565Z,4.00
2018-09-17T22:50:58.409Z,4.90
2018-09-17T22:53:27.429Z,3.47
2018-09-17T22:55:56.365Z,3.53
2018-09-17T22:58:25.279Z,3.00
2018-09-17T23:00:54.087Z,2.57
2018-09-17T23:03:22.971Z,3.50
2018-09-17T23:05:51.844Z,3.77
2018-09-17T23:08:20.869Z,4.67
2018-09-17T23:10:49.668Z,4.67
2018-09-17T23:13:18.524Z,3.30
2018-09-17T23:15:47.507Z,2.70
2018-09-17T23:18:16.314Z,3.20
2018-09-17T23:20:45.238Z,3.00
2018-09-17T23:23:14.070Z,5.03
2018-09-17T23:25:42.914Z,3.10
2018-09-17T23:28:11.920Z,4.40
2018-09-17T23:30:40.792Z,3.23
2018-09-17T23:33:09.711Z,4.37
2018-09-17T23:35:38.589Z,2.90
2018-09-17T23:38:07.447Z,4.17
2018-09-17T23:40:36.318Z,6.37
2018-09-17T23:43:05.146Z,3.30
2018-09-17T23:45:33.973Z,3.03
2018-09-17T23:48:02.852Z,3.77
2018-09-17T23:50:31.694Z,5.17
2018-09-17T23:53:06.832Z,4.93
2018-09-17T23:55:35.668Z,4.93
2018-09-17T23:58:04.486Z,4.63
